Time;durP1;ratioP1;P1;durP2;ratioP2;P2;SDS_P1;SDS_P2;PMS_P1;PMS_P2;Temp;Humidity;BMP_temperature;BMP_pressure;BME280_temperature;BME280_humidity;BME280_pressure;Samples;Min_cycle;Max_cycle;Signal;HPM_P1;HPM_P2
2021/01/12 00:01:48;;;;;;;24.75;15.05;;;;;;;-1.21;67.07;100967.11;1727524;83;21154;-65
2021/01/12 00:04:17;;;;;;;26.05;14.58;;;;;;;-1.21;66.45;100972.30;1725602;82;21442;-65
2021/01/12 00:06:44;;;;;;;23.35;13.68;;;;;;;-1.22;66.00;100974.04;1685683;84;21869;-65
2021/01/12 00:09:12;;;;;;;23.02;14.28;;;;;;;-1.19;65.74;100977.00;1683988;83;21133;-65
2021/01/12 00:11:40;;;;;;;32.08;18.67;;;;;;;-1.17;65.64;100972.63;1698223;84;21141;-65
2021/01/12 00:16:55;;;;;;;32.05;20.25;;;;;;;-1.20;65.64;100968.81;1752239;81;21065;-66
2021/01/12 00:19:22;;;;;;;46.10;26.20;;;;;;;-1.20;65.79;100967.08;1747263;81;22081;-66
2021/01/12 00:21:51;;;;;;;49.03;29.70;;;;;;;-1.20;65.76;100961.89;1753716;81;21516;-66
2021/01/12 00:24:19;;;;;;;40.73;24.50;;;;;;;-1.19;65.89;100966.19;1751089;81;21144;-66
2021/01/12 00:26:48;;;;;;;37.28;21.85;;;;;;;-1.19;65.83;100968.78;1728440;81;21592;-66
2021/01/12 00:29:17;;;;;;;33.48;19.15;;;;;;;-1.20;65.75;100964.92;1749167;81;21125;-66
2021/01/12 00:31:46;;;;;;;30.50;18.60;;;;;;;-1.20;65.64;100959.75;1724583;82;22137;-66
2021/01/12 00:34:14;;;;;;;29.00;17.32;;;;;;;-1.20;65.40;100964.92;1722830;83;21106;-66
2021/01/12 00:36:49;;;;;;;26.55;15.88;;;;;;;-1.19;65.64;100966.19;1724752;81;21069;-66
2021/01/12 00:39:18;;;;;;;33.60;19.48;;;;;;;-1.18;65.58;100962.70;1725857;81;21192;-66
2021/01/12 00:41:55;;;;;;;30.88;18.32;;;;;;;-1.19;65.42;100961.00;1745593;81;21157;-67
2021/01/12 00:44:25;;;;;;;30.55;18.15;;;;;;;-1.19;65.49;100960.15;1723684;83;23104;-66
2021/01/12 00:46:53;;;;;;;35.33;18.80;;;;;;;-1.19;65.50;100962.30;1724485;81;21154;-66
2021/01/12 00:49:23;;;;;;;30.00;16.45;;;;;;;-1.20;65.46;100959.30;1728290;81;21509;-66
2021/01/12 00:51:52;;;;;;;19.55;12.55;;;;;;;-1.19;65.46;100962.74;1753698;81;21168;-67
2021/01/12 00:54:22;;;;;;;21.95;12.93;;;;;;;-1.19;65.40;100960.15;1722895;83;21342;-65
2021/01/12 00:56:53;;;;;;;19.00;11.57;;;;;;;-1.21;65.29;100957.59;1722834;83;22061;-66
2021/01/12 00:59:21;;;;;;;22.32;12.23;;;;;;;-1.20;65.22;100955.86;1739822;81;21118;-65
2021/01/12 01:01:48;;;;;;;20.68;11.80;;;;;;;-1.22;64.97;100958.48;1733599;81;21126;-65
2021/01/12 01:04:17;;;;;;;22.58;13.15;;;;;;;-1.23;64.79;100962.41;1722796;83;21121;-65
2021/01/12 01:06:45;;;;;;;22.15;13.35;;;;;;;-1.23;64.35;100961.12;1722766;83;21085;-66
2021/01/12 01:09:13;;;;;;;22.37;13.40;;;;;;;-1.25;64.42;100957.27;1727348;81;21896;-66
2021/01/12 01:11:43;;;;;;;22.87;14.28;;;;;;;-1.27;64.47;100962.90;1752352;81;21497;-66
2021/01/12 01:14:10;;;;;;;22.65;14.28;;;;;;;-1.27;64.65;100962.90;1692224;84;22150;-65
2021/01/12 01:16:39;;;;;;;22.70;13.30;;;;;;;-1.28;65.02;100967.67;1694235;82;21132;-66
2021/01/12 01:19:08;;;;;;;19.62;12.33;;;;;;;-1.28;65.32;100967.67;1727859;82;21414;-66
2021/01/12 01:21:36;;;;;;;21.75;12.95;;;;;;;-1.26;65.32;100970.23;1732994;81;22582;-66
2021/01/12 01:24:06;;;;;;;23.25;13.75;;;;;;;-1.25;65.43;100968.08;1733149;82;21522;-66
2021/01/12 01:26:34;;;;;;;25.45;15.43;;;;;;;-1.26;65.50;100968.49;1729018;81;21133;-66
2021/01/12 01:29:03;;;;;;;28.42;16.12;;;;;;;-1.28;65.67;100971.56;1728948;82;21077;-67
2021/01/12 01:31:42;;;;;;;26.57;16.60;;;;;;;-1.27;65.71;100977.16;1690808;82;21085;-66
2021/01/12 01:34:10;;;;;;;26.07;15.55;;;;;;;-1.27;65.80;100977.16;1703874;83;22152;-65
2021/01/12 01:36:38;;;;;;;42.93;31.17;;;;;;;-1.27;65.76;100975.86;1703748;83;21572;-67
2021/01/12 01:39:06;;;;;;;34.80;24.55;;;;;;;-1.28;65.93;100979.78;1704159;82;21153;-66
2021/01/12 01:41:35;;;;;;;19.15;12.75;;;;;;;-1.31;65.79;100979.41;1689981;84;21152;-65
2021/01/12 01:44:06;;;;;;;16.50;10.68;;;;;;;-1.34;65.41;100974.75;1700238;84;21181;-68
2021/01/12 01:46:34;;;;;;;18.48;9.83;;;;;;;-1.36;64.91;100973.45;1696412;83;23053;-65
2021/01/12 01:49:03;;;;;;;16.10;10.32;;;;;;;-1.35;64.59;100968.72;1676656;84;21097;-66
2021/01/12 01:51:31;;;;;;;16.62;11.28;;;;;;;-1.35;64.46;100962.65;1703873;83;21074;-67
2021/01/12 01:53:59;;;;;;;18.62;10.80;;;;;;;-1.35;64.50;100963.95;1696879;83;21140;-66
2021/01/12 01:56:27;;;;;;;17.70;11.33;;;;;;;-1.35;64.63;100962.65;1675739;85;21225;-66
2021/01/12 01:58:54;;;;;;;20.02;12.13;;;;;;;-1.36;64.52;100959.20;1675880;84;21916;-66
2021/01/12 02:01:22;;;;;;;19.77;12.03;;;;;;;-1.34;64.53;100954.02;1697079;84;21104;-66
2021/01/12 02:04:12;;;;;;;20.17;12.25;;;;;;;-1.34;64.71;100952.72;1704064;84;21189;-66
2021/01/12 02:06:42;;;;;;;22.42;13.30;;;;;;;-1.33;64.65;100948.80;1703814;84;21180;-65
2021/01/12 02:09:30;;;;;;;20.57;11.73;;;;;;;-1.33;64.67;100943.62;1682338;84;21080;-65
2021/01/12 02:11:59;;;;;;;14.18;10.00;;;;;;;-1.30;64.72;100949.17;1685310;84;21912;-66
2021/01/12 02:14:28;;;;;;;16.75;9.85;;;;;;;-1.32;64.85;100950.95;1694131;83;21580;-67
2021/01/12 02:16:56;;;;;;;13.80;8.83;;;;;;;-1.34;64.75;100946.25;1698286;84;21085;-67
2021/01/12 02:19:27;;;;;;;11.80;8.63;;;;;;;-1.35;64.47;100950.99;1698264;84;21164;-66
2021/01/12 02:22:05;;;;;;;13.58;9.05;;;;;;;-1.33;64.29;100948.80;1700813;81;21084;-66
2021/01/12 02:24:35;;;;;;;12.15;7.55;;;;;;;-1.33;64.41;100950.54;1702131;83;22541;-67
2021/01/12 02:27:05;;;;;;;15.18;10.38;;;;;;;-1.33;64.24;100943.62;1719217;83;21093;-67
2021/01/12 02:29:33;;;;;;;14.58;8.88;;;;;;;-1.37;64.22;100943.25;1727359;83;21105;-68
2021/01/12 02:32:01;;;;;;;15.72;10.40;;;;;;;-1.36;64.46;100942.81;1723973;83;21096;-66
2021/01/12 02:34:31;;;;;;;16.17;10.88;;;;;;;-1.38;64.62;100940.25;1699893;83;21155;-66
2021/01/12 02:36:59;;;;;;;17.73;10.80;;;;;;;-1.41;64.71;100937.73;1702992;83;21911;-66
2021/01/12 02:39:27;;;;;;;13.35;9.80;;;;;;;-1.40;64.75;100947.66;1709713;83;22521;-66
2021/01/12 02:41:56;;;;;;;17.17;10.90;;;;;;;-1.41;64.96;100942.92;1719738;83;21078;-67
2021/01/12 02:44:25;;;;;;;22.50;13.48;;;;;;;-1.41;65.13;100943.37;1711097;83;21292;-66
2021/01/12 02:46:55;;;;;;;22.15;13.93;;;;;;;-1.43;65.17;100940.81;1709683;83;21155;-66
2021/01/12 02:49:23;;;;;;;24.12;13.68;;;;;;;-1.44;65.27;100936.52;1698319;84;22069;-66
2021/01/12 02:51:51;;;;;;;18.92;12.33;;;;;;;-1.46;65.28;100937.82;1719357;83;21110;-66
2021/01/12 02:54:18;;;;;;;20.17;12.95;;;;;;;-1.46;65.15;100933.08;1725404;83;21026;-66
2021/01/12 02:56:46;;;;;;;20.35;13.70;;;;;;;-1.46;65.21;100931.34;1727287;83;21200;-66
2021/01/12 02:59:13;;;;;;;19.80;12.55;;;;;;;-1.42;65.27;100935.19;1727125;83;21523;-66
2021/01/12 03:01:41;;;;;;;14.35;8.20;;;;;;;-1.41;65.19;100930.41;1727239;83;21914;-66
2021/01/12 03:04:09;;;;;;;14.10;9.58;;;;;;;-1.43;64.88;100925.71;1725302;83;22536;-66
2021/01/12 03:06:36;;;;;;;13.80;9.68;;;;;;;-1.42;64.60;100924.38;1725347;83;21473;-65
2021/01/12 03:09:04;;;;;;;15.23;10.00;;;;;;;-1.42;64.58;100918.34;1706208;83;21093;-66
2021/01/12 03:11:32;;;;;;;15.20;10.88;;;;;;;-1.42;64.61;100914.46;1719206;83;21069;-66
2021/01/12 03:13:59;;;;;;;14.47;9.80;;;;;;;-1.42;64.58;100914.46;1725368;83;21616;-66
2021/01/12 03:16:27;;;;;;;97.75;60.33;;;;;;;-1.42;64.69;100910.58;1707457;83;21129;-66
2021/01/12 03:18:55;;;;;;;68.07;52.20;;;;;;;-1.44;64.70;100906.72;1700620;84;21081;-66
2021/01/12 03:21:23;;;;;;;27.70;20.50;;;;;;;-1.45;64.79;100914.06;1702372;84;21074;-65
2021/01/12 03:23:51;;;;;;;21.42;13.75;;;;;;;-1.43;64.87;100909.72;1696947;84;21078;-66
2021/01/12 03:26:22;;;;;;;18.82;12.47;;;;;;;-1.43;64.91;100912.31;1671890;84;22033;-66
2021/01/12 03:28:49;;;;;;;13.60;10.05;;;;;;;-1.44;64.97;100908.02;1698561;84;21137;-66
2021/01/12 03:31:17;;;;;;;14.45;9.23;;;;;;;-1.42;64.82;100907.98;1687415;84;21181;-66
2021/01/12 03:33:46;;;;;;;16.02;10.28;;;;;;;-1.41;64.78;100901.91;1701119;84;21067;-65
2021/01/12 03:36:13;;;;;;;16.05;10.25;;;;;;;-1.41;64.84;100894.14;1692919;84;21105;-66
2021/01/12 03:38:41;;;;;;;12.23;8.50;;;;;;;-1.42;64.84;100885.52;1702160;84;21908;-65
2021/01/12 03:41:08;;;;;;;12.07;8.08;;;;;;;-1.42;64.77;100888.55;1703935;84;21596;-65
2021/01/12 03:43:36;;;;;;;13.48;7.67;;;;;;;-1.45;64.27;100888.16;1700693;84;21193;-65
2021/01/12 03:46:04;;;;;;;12.55;8.45;;;;;;;-1.46;64.18;100884.70;1683210;84;21165;-65
2021/01/12 03:48:32;;;;;;;12.55;8.23;;;;;;;-1.45;63.88;100885.56;1703880;84;21117;-65
2021/01/12 03:50:59;;;;;;;13.20;7.90;;;;;;;-1.45;63.73;100884.27;1704007;83;22823;-65
2021/01/12 03:53:27;;;;;;;11.88;7.62;;;;;;;-1.46;63.86;100875.64;1703910;83;21627;-65
2021/01/12 03:55:55;;;;;;;14.10;8.95;;;;;;;-1.43;63.51;100880.38;1703922;84;21074;-66
2021/01/12 03:58:22;;;;;;;11.43;8.35;;;;;;;-1.44;63.34;100871.75;1702404;84;21073;-65
2021/01/12 04:00:51;;;;;;;20.00;10.40;;;;;;;-1.44;63.39;100871.75;1704042;84;21370;-65
2021/01/12 04:03:19;;;;;;;17.98;10.63;;;;;;;-1.43;63.48;100861.79;1700927;84;21909;-66
2021/01/12 04:05:47;;;;;;;19.48;11.73;;;;;;;-1.45;63.63;100857.06;1699915;84;21548;-65
2021/01/12 04:08:16;;;;;;;20.40;12.20;;;;;;;-1.46;63.71;100856.66;1686120;84;21073;-65
2021/01/12 04:10:43;;;;;;;20.85;11.90;;;;;;;-1.47;63.87;100858.84;1676199;84;21090;-65
2021/01/12 04:13:11;;;;;;;19.02;10.88;;;;;;;-1.48;63.89;100860.58;1675761;85;21499;-65
2021/01/12 04:15:38;;;;;;;17.00;10.93;;;;;;;-1.48;63.92;100858.44;1709522;82;22077;-65
2021/01/12 04:18:06;;;;;;;16.73;10.08;;;;;;;-1.49;63.98;100851.55;1725371;83;21503;-65
2021/01/12 04:20:34;;;;;;;14.50;9.75;;;;;;;-1.50;63.80;100848.56;1727286;83;21089;-65
2021/01/12 04:23:02;;;;;;;17.42;10.55;;;;;;;-1.51;63.88;100852.89;1726941;83;21069;-65
2021/01/12 04:25:30;;;;;;;17.40;11.00;;;;;;;-1.52;64.14;100844.71;1727405;83;21432;-65
2021/01/12 04:27:58;;;;;;;19.30;12.40;;;;;;;-1.50;64.47;100845.52;1725369;83;22142;-66
2021/01/12 04:30:28;;;;;;;22.82;14.10;;;;;;;-1.51;64.96;100849.45;1727133;83;22477;-65
2021/01/12 04:32:56;;;;;;;19.80;11.48;;;;;;;-1.49;65.22;100856.73;1727274;83;21077;-65
2021/01/12 04:35:23;;;;;;;14.47;9.55;;;;;;;-1.49;65.39;100854.99;1727200;83;21073;-65
2021/01/12 04:37:51;;;;;;;14.68;9.65;;;;;;;-1.51;64.96;100858.52;1703349;83;21149;-65
2021/01/12 04:40:19;;;;;;;15.63;8.00;;;;;;;-1.53;64.74;100871.95;1725240;83;22749;-65
2021/01/12 04:42:46;;;;;;;10.45;7.22;;;;;;;-1.56;64.35;100869.41;1727199;83;21184;-66
2021/01/12 04:45:15;;;;;;;14.00;8.83;;;;;;;-1.59;63.42;100879.84;1704077;83;21120;-65
2021/01/12 04:47:43;;;;;;;13.68;8.38;;;;;;;-1.60;63.25;100876.40;1698117;84;21089;-65
2021/01/12 04:50:12;;;;;;;9.78;6.55;;;;;;;-1.61;63.27;100879.88;1718827;83;21145;-65
2021/01/12 04:52:49;;;;;;;11.80;6.87;;;;;;;-1.63;62.32;100888.58;1724467;83;22069;-67
2021/01/12 04:55:19;;;;;;;15.25;8.10;;;;;;;-1.64;61.70;100887.72;1726072;83;21200;-66
2021/01/12 04:57:48;;;;;;;11.22;5.80;;;;;;;-1.66;61.21;100888.61;1727156;83;21236;-66
2021/01/12 05:00:25;;;;;;;12.63;7.60;;;;;;;-1.67;60.50;100881.73;1723509;83;21081;-66
2021/01/12 05:03:07;;;;;;;14.50;7.90;;;;;;;-1.68;60.74;100895.13;1716081;83;21111;-65
2021/01/12 05:05:40;;;;;;;16.07;9.47;;;;;;;-1.66;60.66;100901.56;1722120;83;22825;-66
2021/01/12 05:08:12;;;;;;;11.12;6.97;;;;;;;-1.69;61.21;100904.23;1706929;83;21608;-67
2021/01/12 05:10:42;;;;;;;15.23;9.30;;;;;;;-1.70;61.33;100909.85;1722558;83;21338;-66
2021/01/12 05:13:12;;;;;;;13.95;7.30;;;;;;;-1.71;61.59;100917.22;1727176;83;21328;-67
2021/01/12 05:15:40;;;;;;;11.70;6.87;;;;;;;-1.72;60.66;100919.39;1703935;83;21216;-65
2021/01/12 05:18:10;;;;;;;13.48;7.85;;;;;;;-1.76;60.15;100913.41;1684913;84;23101;-66
2021/01/12 05:20:43;;;;;;;13.98;7.70;;;;;;;-1.75;60.06;100912.52;1682130;84;21268;-65
2021/01/12 05:23:13;;;;;;;15.35;8.78;;;;;;;-1.74;59.87;100909.08;1690861;84;21328;-65
2021/01/12 05:25:42;;;;;;;14.03;7.72;;;;;;;-1.73;59.96;100907.34;1698073;83;21525;-66
2021/01/12 05:28:12;;;;;;;14.10;8.50;;;;;;;-1.74;60.08;100900.42;1679966;84;21429;-66
2021/01/12 05:30:40;;;;;;;15.58;9.03;;;;;;;-1.75;60.46;100896.12;1698756;84;22058;-65
2021/01/12 05:33:07;;;;;;;20.70;12.43;;;;;;;-1.75;60.87;100898.72;1698715;83;21189;-65
2021/01/12 05:35:38;;;;;;;17.67;9.85;;;;;;;-1.76;61.29;100897.02;1695153;84;21078;-66
2021/01/12 05:38:08;;;;;;;29.23;14.65;;;;;;;-1.77;61.29;100893.58;1696910;84;21074;-67
2021/01/12 05:40:40;;;;;;;25.48;13.55;;;;;;;-1.78;61.58;100894.47;1698857;84;21074;-66
2021/01/12 05:43:12;;;;;;;21.62;11.88;;;;;;;-1.79;61.49;100897.09;1698951;84;22075;-64
2021/01/12 05:45:42;;;;;;;21.07;11.10;;;;;;;-1.77;61.64;100900.50;1698767;84;21148;-66
2021/01/12 05:48:11;;;;;;;16.77;9.28;;;;;;;-1.78;61.58;100897.50;1694376;83;21560;-68
2021/01/12 05:50:40;;;;;;;25.88;12.73;;;;;;;-1.79;61.06;100895.35;1697003;84;21580;-67
2021/01/12 05:53:15;;;;;;;29.25;14.85;;;;;;;-1.78;61.24;100890.58;1698844;84;21132;-68
2021/01/12 05:55:44;;;;;;;30.40;16.93;;;;;;;-1.78;61.13;100894.91;1685772;84;22055;-68
2021/01/12 05:58:17;;;;;;;20.68;10.15;;;;;;;-1.78;60.84;100898.35;1677932;84;21521;-66
2021/01/12 06:00:47;;;;;;;22.03;10.63;;;;;;;-1.76;60.51;100896.58;1684871;84;21065;-65
2021/01/12 06:03:16;;;;;;;32.78;18.10;;;;;;;-1.76;60.64;100879.74;1695360;84;21089;-66
2021/01/12 06:05:46;;;;;;;19.10;9.98;;;;;;;-1.76;60.27;100877.16;1696943;84;21366;-66
2021/01/12 06:10:56;;;;;;;13.00;7.85;;;;;;;-1.79;59.65;100868.16;1705965;83;21108;-67
2021/01/12 06:13:23;;;;;;;26.35;14.90;;;;;;;-1.77;59.28;100871.56;1642069;85;21073;-66
2021/01/12 06:15:52;;;;;;;22.65;12.10;;;;;;;-1.76;59.32;100864.65;1721229;82;22456;-67
2021/01/12 06:18:20;;;;;;;13.98;7.85;;;;;;;-1.76;59.46;100859.47;1683637;83;21172;-68
2021/01/12 06:21:06;;;;;;;19.32;10.53;;;;;;;-1.75;59.59;100863.77;1731545;82;22065;-69
2021/01/12 06:23:48;;;;;;;16.73;10.28;;;;;;;-1.76;59.70;100859.03;1735724;81;21141;-70
2021/01/12 06:26:16;;;;;;;23.32;11.38;;;;;;;-1.76;59.75;100865.95;1758978;81;21057;-67
2021/01/12 06:28:44;;;;;;;24.85;13.18;;;;;;;-1.75;59.65;100872.38;1759604;81;21069;-67
2021/01/12 06:31:12;;;;;;;17.05;10.53;;;;;;;-1.74;59.53;100882.30;1734033;81;21101;-68
2021/01/12 06:33:40;;;;;;;21.50;11.03;;;;;;;-1.75;59.64;100887.06;1759656;81;21897;-67
2021/01/12 06:36:10;;;;;;;21.00;12.43;;;;;;;-1.76;59.45;100887.95;1759571;81;21129;-68
2021/01/12 06:38:38;;;;;;;35.38;20.72;;;;;;;-1.78;59.42;100892.32;1758429;81;21171;-67
2021/01/12 06:41:08;;;;;;;42.65;22.60;;;;;;;-1.80;59.39;100887.17;1759624;81;21077;-67
2021/01/12 06:43:35;;;;;;;26.12;15.10;;;;;;;-1.82;59.47;100882.48;1734362;81;21092;-68
2021/01/12 06:46:05;;;;;;;27.17;14.38;;;;;;;-1.80;59.44;100892.36;1759630;81;22359;-69
2021/01/12 06:48:32;;;;;;;30.08;16.77;;;;;;;-1.82;59.48;100886.36;1731891;81;21089;-69
2021/01/12 06:51:01;;;;;;;24.12;13.53;;;;;;;-1.83;59.58;100886.40;1667625;83;21553;-69
2021/01/12 06:53:29;;;;;;;27.58;15.25;;;;;;;-1.84;59.50;100895.88;1703735;83;21141;-69
2021/01/12 06:56:05;;;;;;;28.57;17.70;;;;;;;-1.86;59.00;100893.77;1729890;81;21156;-69
2021/01/12 06:58:33;;;;;;;20.97;12.40;;;;;;;-1.86;58.66;100895.06;1727868;83;22045;-68
2021/01/12 07:01:01;;;;;;;23.12;13.58;;;;;;;-1.86;58.70;100887.29;1727810;81;21144;-68
2021/01/12 07:03:31;;;;;;;24.72;14.25;;;;;;;-1.85;58.61;100890.29;1733610;82;21140;-67
2021/01/12 07:06:01;;;;;;;18.05;10.82;;;;;;;-1.85;58.62;100896.76;1727789;81;21144;-68
2021/01/12 07:08:29;;;;;;;20.20;12.23;;;;;;;-1.84;58.46;100894.58;1733571;82;21145;-68
2021/01/12 07:11:02;;;;;;;27.22;13.53;;;;;;;-1.84;58.44;100889.84;1729949;81;22052;-68
2021/01/12 07:13:39;;;;;;;17.37;10.13;;;;;;;-1.84;58.57;100891.14;1746761;81;21359;-68
2021/01/12 07:16:16;;;;;;;16.20;9.53;;;;;;;-1.84;58.43;100895.88;1723213;81;21051;-68
2021/01/12 07:18:44;;;;;;;12.60;7.53;;;;;;;-1.84;58.46;100889.84;1734486;81;21318;-68
2021/01/12 07:21:15;;;;;;;11.97;8.23;;;;;;;-1.85;58.37;100892.88;1759360;81;21535;-70
2021/01/12 07:23:43;;;;;;;12.90;7.55;;;;;;;-1.85;58.57;100881.23;1728183;81;22066;-70
2021/01/12 07:26:12;;;;;;;17.37;9.80;;;;;;;-1.85;58.40;100887.70;1723334;83;21115;-69
2021/01/12 07:28:46;;;;;;;24.43;13.40;;;;;;;-1.84;58.49;100885.95;1709833;81;21102;-67
2021/01/12 07:31:14;;;;;;;17.20;9.30;;;;;;;-1.85;58.79;100887.70;1753678;81;21049;-68
2021/01/12 07:33:42;;;;;;;15.13;7.00;;;;;;;-1.84;58.62;100888.11;1721523;81;21045;-68
2021/01/12 07:36:12;;;;;;;23.65;11.68;;;;;;;-1.85;58.50;100895.47;1687015;81;21908;-68
2021/01/12 07:38:39;;;;;;;19.77;11.18;;;;;;;-1.83;58.95;100894.17;1691104;83;21157;-68
2021/01/12 07:41:07;;;;;;;24.32;11.83;;;;;;;-1.82;59.18;100888.95;1703328;83;21072;-68
2021/01/12 07:43:35;;;;;;;17.52;10.35;;;;;;;-1.81;59.04;100882.03;1727810;83;21032;-68
2021/01/12 07:46:04;;;;;;;18.70;10.28;;;;;;;-1.81;59.18;100877.70;1729231;82;21351;-69
2021/01/12 07:48:32;;;;;;;20.15;11.83;;;;;;;-1.81;59.13;100879.00;1730227;81;21922;-66
2021/01/12 07:51:01;;;;;;;24.02;13.03;;;;;;;-1.81;58.96;100875.56;1749648;81;21543;-67
2021/01/12 07:53:33;;;;;;;22.45;12.35;;;;;;;-1.83;58.89;100876.05;1729472;83;21111;-67
2021/01/12 07:56:01;;;;;;;19.00;10.58;;;;;;;-1.86;58.88;100873.05;1729485;83;21172;-67
2021/01/12 07:58:29;;;;;;;26.95;14.65;;;;;;;-1.86;58.95;100862.69;1729417;83;21123;-67
2021/01/12 08:00:59;;;;;;;19.12;11.05;;;;;;;-1.86;58.85;100865.73;1731815;81;22153;-67
2021/01/12 08:03:28;;;;;;;25.90;13.85;;;;;;;-1.87;58.98;100873.09;1736160;81;21219;-67
2021/01/12 08:06:00;;;;;;;16.60;9.63;;;;;;;-1.87;59.04;100866.61;1727531;82;21154;-72
2021/01/12 08:08:28;;;;;;;24.85;14.05;;;;;;;-1.84;59.07;100858.33;1718613;81;21159;-66
2021/01/12 08:10:56;;;;;;;21.57;13.15;;;;;;;-1.83;58.99;100844.97;1758383;81;21128;-66
2021/01/12 08:13:24;;;;;;;22.15;14.18;;;;;;;-1.81;59.03;100844.48;1746742;81;22170;-66
2021/01/12 08:15:53;;;;;;;25.27;13.48;;;;;;;-1.78;59.26;100842.67;1732155;82;21072;-66
2021/01/12 08:18:21;;;;;;;34.88;17.40;;;;;;;-1.71;59.51;100841.27;1725870;82;21170;-65
2021/01/12 08:20:54;;;;;;;26.73;15.70;;;;;;;-1.66;59.42;100831.64;1717558;81;21158;-66
2021/01/12 08:23:22;;;;;;;27.70;15.70;;;;;;;-1.59;59.25;100821.56;1728240;82;20999;-66
2021/01/12 08:25:50;;;;;;;24.95;13.38;;;;;;;-1.51;59.42;100807.55;1723569;82;21850;-66
2021/01/12 08:28:17;;;;;;;26.73;14.33;;;;;;;-1.41;59.25;100805.60;1755221;81;21648;-67
2021/01/12 08:30:46;;;;;;;20.05;11.78;;;;;;;-1.36;58.92;100802.44;1712900;82;21106;-67
2021/01/12 08:33:27;;;;;;;15.45;9.18;;;;;;;-1.33;58.83;100799.80;1685023;84;21081;-67
2021/01/12 08:36:09;;;;;;;14.20;8.00;;;;;;;-1.32;58.08;100798.91;1704018;83;21072;-67
2021/01/12 08:38:43;;;;;;;16.87;10.95;;;;;;;-1.31;57.75;100804.50;1757020;81;22887;-67
2021/01/12 08:41:11;;;;;;;19.62;11.00;;;;;;;-1.31;57.72;100807.53;1737602;81;21445;-67
2021/01/12 08:43:39;;;;;;;16.73;10.68;;;;;;;-1.25;57.98;100807.40;1731817;82;21166;-67
2021/01/12 08:46:07;;;;;;;20.00;12.10;;;;;;;-1.18;57.65;100795.52;1758551;81;21070;-67
2021/01/12 08:48:35;;;;;;;23.47;13.62;;;;;;;-1.12;57.28;100797.58;1755146;81;21069;-66
2021/01/12 08:51:18;;;;;;;23.02;12.80;;;;;;;-1.11;57.21;100796.69;1734790;82;21890;-66
2021/01/12 08:53:47;;;;;;;20.25;12.05;;;;;;;-1.09;57.07;100794.90;1734971;82;21089;-66
2021/01/12 08:56:15;;;;;;;24.32;14.60;;;;;;;-1.08;56.64;100795.30;1744723;81;21140;-69
2021/01/12 08:58:43;;;;;;;29.80;16.77;;;;;;;-1.11;56.30;100800.13;1728704;82;21103;-67
2021/01/12 09:01:16;;;;;;;27.95;15.20;;;;;;;-1.12;56.41;100804.05;1764176;81;21108;-67
2021/01/12 09:03:44;;;;;;;21.20;11.73;;;;;;;-1.14;56.30;100798.06;1737080;81;22077;-68
2021/01/12 09:06:22;;;;;;;22.90;12.82;;;;;;;-1.16;56.15;100793.77;1732916;81;21256;-68
2021/01/12 09:08:51;;;;;;;23.67;12.35;;;;;;;-1.18;56.16;100786.90;1757846;81;21144;-66
2021/01/12 09:11:19;;;;;;;24.23;13.60;;;;;;;-1.18;56.35;100773.94;1755180;81;21132;-66
2021/01/12 09:13:49;;;;;;;22.85;11.83;;;;;;;-1.16;56.48;100774.33;1751097;81;21127;-69
2021/01/12 09:16:20;;;;;;;24.27;12.78;;;;;;;-1.07;56.67;100763.30;1737992;81;22130;-66
2021/01/12 09:18:48;;;;;;;28.92;14.40;;;;;;;-1.00;56.45;100753.19;1724871;81;21251;-67
2021/01/12 09:21:16;;;;;;;29.40;14.05;;;;;;;-0.95;56.24;100763.86;1711046;83;21069;-66
2021/01/12 09:23:44;;;;;;;24.07;13.08;;;;;;;-0.92;56.16;100768.95;1710627;81;21128;-69
2021/01/12 09:26:12;;;;;;;29.12;14.18;;;;;;;-0.90;56.32;100767.61;1754960;81;21182;-67
2021/01/12 09:28:40;;;;;;;23.15;11.80;;;;;;;-0.92;56.05;100765.52;1727543;81;22078;-67
2021/01/12 09:31:14;;;;;;;17.02;9.30;;;;;;;-0.91;56.25;100771.10;1765129;81;21633;-68
2021/01/12 09:33:50;;;;;;;13.60;8.33;;;;;;;-0.92;55.36;100770.70;1740383;81;21442;-67
2021/01/12 09:36:19;;;;;;;12.28;8.20;;;;;;;-0.99;55.53;100755.73;1733251;82;21185;-66
2021/01/12 09:38:49;;;;;;;14.00;8.00;;;;;;;-1.01;55.41;100751.49;1743505;81;21048;-67
2021/01/12 09:41:22;;;;;;;21.12;11.88;;;;;;;-1.03;55.65;100754.58;1734846;82;22072;-66
2021/01/12 09:43:50;;;;;;;20.27;11.25;;;;;;;-1.00;55.58;100759.67;1736506;82;21156;-69
2021/01/12 09:46:19;;;;;;;20.08;11.00;;;;;;;-0.98;55.81;100759.18;1712957;83;22544;-68
2021/01/12 09:48:49;;;;;;;23.27;12.35;;;;;;;-0.95;55.73;100745.71;1740738;81;21114;-68
2021/01/12 09:51:17;;;;;;;19.23;12.15;;;;;;;-0.91;55.57;100734.80;1740878;81;21157;-67
2021/01/12 09:53:46;;;;;;;14.10;9.40;;;;;;;-0.87;55.70;100724.73;1734006;82;23071;-67
2021/01/12 09:56:15;;;;;;;24.55;12.65;;;;;;;-0.87;55.42;100726.03;1734697;81;21164;-68
2021/01/12 09:58:45;;;;;;;24.90;12.93;;;;;;;-0.85;55.44;100724.27;1757583;81;21197;-67
2021/01/12 10:01:13;;;;;;;19.75;10.80;;;;;;;-0.84;55.11;100725.98;1756723;81;21192;-68
2021/01/12 10:03:42;;;;;;;16.15;9.78;;;;;;;-0.83;55.19;100709.52;1739799;81;21106;-66
2021/01/12 10:06:21;;;;;;;15.58;9.73;;;;;;;-0.81;55.53;100706.88;1733738;82;22065;-66
2021/01/12 10:08:49;;;;;;;16.30;9.90;;;;;;;-0.80;55.52;100701.64;1749371;81;21121;-66
2021/01/12 10:11:17;;;;;;;16.62;11.03;;;;;;;-0.78;55.64;100692.07;1761542;81;21346;-66
2021/01/12 10:13:46;;;;;;;21.70;11.65;;;;;;;-0.75;55.66;100675.15;1759762;81;21071;-66
2021/01/12 10:16:23;;;;;;;30.37;15.32;;;;;;;-0.73;55.59;100671.21;1712072;82;21102;-67
2021/01/12 10:18:52;;;;;;;26.15;14.83;;;;;;;-0.70;55.49;100663.33;1750328;82;22047;-67
2021/01/12 10:21:20;;;;;;;13.50;7.72;;;;;;;-0.71;55.66;100661.19;1722280;82;21145;-66
2021/01/12 10:23:49;;;;;;;10.98;7.33;;;;;;;-0.71;54.87;100662.48;1698950;84;21065;-67
2021/01/12 10:26:18;;;;;;;15.95;9.65;;;;;;;-0.75;54.83;100661.33;1750502;81;21071;-68
2021/01/12 10:28:47;;;;;;;15.72;9.38;;;;;;;-0.77;55.37;100653.60;1711186;83;21466;-64
2021/01/12 10:31:19;;;;;;;17.07;10.15;;;;;;;-0.74;55.54;100652.20;1726973;83;21892;-67
2021/01/12 10:33:49;;;;;;;12.78;7.30;;;;;;;-0.75;55.43;100641.44;1726527;81;21087;-67
2021/01/12 10:36:19;;;;;;;10.28;6.78;;;;;;;-0.72;55.54;100636.59;1689793;82;21062;-67
2021/01/12 10:38:47;;;;;;;11.10;6.83;;;;;;;-0.69;55.09;100633.45;1725970;82;21097;-67
2021/01/12 10:41:15;;;;;;;10.20;6.08;;;;;;;-0.65;55.08;100622.56;1720528;83;21359;-67
2021/01/12 10:43:43;;;;;;;10.98;7.17;;;;;;;-0.59;54.54;100614.13;1722636;82;22095;-67
2021/01/12 10:46:13;;;;;;;10.35;6.60;;;;;;;-0.52;54.34;100604.88;1708369;83;21142;-66
2021/01/12 10:48:41;;;;;;;12.28;7.78;;;;;;;-0.52;54.21;100614.80;1691540;83;21209;-66
2021/01/12 10:51:10;;;;;;;11.30;6.62;;;;;;;-0.52;54.37;100613.95;1720085;83;21170;-67
2021/01/12 10:53:38;;;;;;;8.38;5.30;;;;;;;-0.53;54.54;100591.51;1710919;81;21177;-69
2021/01/12 10:56:05;;;;;;;10.05;6.67;;;;;;;-0.54;54.52;100587.22;1712474;83;22096;-66
2021/01/12 10:58:33;;;;;;;13.35;7.67;;;;;;;-0.58;54.48;100596.81;1707022;83;21176;-66
2021/01/12 11:01:02;;;;;;;8.98;5.42;;;;;;;-0.67;54.45;100587.59;1719203;83;21158;-68
2021/01/12 11:03:31;;;;;;;7.62;4.40;;;;;;;-0.68;54.59;100578.53;1725244;83;21202;-68
2021/01/12 11:05:59;;;;;;;6.60;4.65;;;;;;;-0.70;54.64;100588.97;1721489;81;21154;-66
2021/01/12 11:08:29;;;;;;;5.75;3.55;;;;;;;-0.72;54.78;100594.65;1731539;81;21885;-66
2021/01/12 11:10:57;;;;;;;5.00;3.50;;;;;;;-0.75;55.08;100592.16;1750804;81;22116;-67
2021/01/12 11:13:27;;;;;;;4.90;3.00;;;;;;;-0.75;55.25;100589.56;1717355;82;21098;-69
2021/01/12 11:15:58;;;;;;;4.78;3.08;;;;;;;-0.79;54.72;100611.27;1698801;81;21109;-67
2021/01/12 11:18:27;;;;;;;7.60;3.70;;;;;;;-0.84;54.88;100625.29;1699069;84;21069;-66
2021/01/12 11:20:56;;;;;;;8.00;4.90;;;;;;;-0.88;55.04;100635.73;1691710;83;21900;-69
2021/01/12 11:23:25;;;;;;;7.42;4.40;;;;;;;-0.88;55.38;100618.88;1667506;84;21524;-66
2021/01/12 11:25:54;;;;;;;9.53;5.35;;;;;;;-0.84;55.25;100611.88;1678043;84;21201;-69
2021/01/12 11:28:22;;;;;;;6.87;4.60;;;;;;;-0.86;55.30;100586.44;1691380;83;21145;-68